Flight Track Log - Related Links

Times and Time Zones

All times are in EST time to prevent confusion due to time zone crossing. See the TPA702 flight status page for this flight to view local times or setup timezone preferences in your user account.

Time Position Orientation Groundspeed Altitude Reporting Facility
EST Latitude Longitude Course Direction KTS MPH feet Rate Location/Type
Wed 09:50:27 AM 22.3000 -78.6325 346° North 459 528 40,000  Level Miami Center
Wed 09:51:27 AM 22.4250 -78.6656 346° North 469 540 40,000  Level Miami Center
Wed 09:52:27 AM 22.5481 -78.6897 350° North 452 520 40,000  Level Miami Center
Wed 09:53:27 AM 22.6731 -78.7206 347° North 452 520 40,000  Level Miami Center
Wed 09:54:27 AM 22.8019 -78.7631 343° North 458 527 40,000  Level Miami Center
Wed 09:55:27 AM 22.9289 -78.7986 346° North 458 527 40,000  Level Miami Center
Wed 09:56:27 AM 23.0539 -78.8300 347° North 447 514 40,000  Level Miami Center
Wed 10:02:18 AM 23.8010 -79.0180 347° North 464 534 40,000  Level FlightAware ADS-B
Wed 10:02:55 AM 23.8760 -79.0300 352° North 468 539 40,000  Level FlightAware ADS-B
Wed 10:03:43 AM 23.9860 -79.0190 North 471 542 40,000  Level FlightAware ADS-B
Wed 10:04:18 AM 24.0610 -79.0100 North 471 542 40,000  Level FlightAware ADS-B
Wed 10:04:54 AM 24.1360 -78.9980 North 465 535 40,000  Level FlightAware ADS-B
Wed 10:05:26 AM 24.2010 -78.9780 16° North 467 537 40,000 -435 Level FlightAware ADS-B
Wed 10:06:03 AM 24.2840 -78.9520 16° North 469 540 39,500 -1,875 Descending FlightAware ADS-B
Wed 10:06:30 AM 24.3440 -78.9420 North 477 549 38,000 -2,657 Descending FlightAware ADS-B
Wed 10:07:13 AM 24.4320 -78.9480 356° North 468 539 36,400 -2,857 Descending FlightAware ADS-B
Wed 10:07:54 AM 24.5290 -78.9560 356° North 488 562 34,000 -1,714 Descending FlightAware ADS-B
Wed 10:08:37 AM 24.6110 -78.9640 355° North 488 562 34,000  Level FlightAware ADS-B
Wed 10:09:25 AM 24.7030 -78.9730 355° North 488 562 34,000 -4,086 Level FlightAware ADS-B
Wed 10:10:33 AM 24.8310 -79.1530 308° West 486 559 26,100 -5,816 Descending FlightAware ADS-B
Wed 10:11:03 AM 24.8820 -79.2050 317° Northwest 482 555 24,500 -3,975 Descending FlightAware ADS-B
Wed 10:11:53 AM 24.9610 -79.2850 317° Northwest 449 517 20,800 -4,067 Descending FlightAware ADS-B
Wed 10:12:33 AM 25.0220 -79.3480 317° Northwest 445 512 18,400 -2,519 Descending FlightAware ADS-B
Wed 10:13:14 AM 25.0820 -79.4080 318° Northwest 418 481 17,400 -2,026 Descending FlightAware ADS-B
Wed 10:13:50 AM 25.1350 -79.4630 317° Northwest 420 483 15,800 -1,976 Descending FlightAware ADS-B
Wed 10:14:39 AM 25.2020 -79.5310 317° Northwest 401 461 14,600 -1,806 Descending FlightAware ADS-B
Wed 10:15:23 AM 25.2640 -79.5950 317° Northwest 398 458 13,000 -1,875 Descending FlightAware ADS-B
Wed 10:15:59 AM 25.3100 -79.6420 317° Northwest 395 455 12,100 -975 Descending FlightAware ADS-B
Wed 10:16:43 AM 25.3680 -79.7010 317° Northwest 355 409 11,700 -500 Descending FlightAware ADS-B
Wed 10:17:23 AM 25.4100 -79.7550 311° West 333 383 11,400 -450 Descending FlightAware ADS-B
Wed 10:18:03 AM 25.4450 -79.8080 306° West 306 352 11,100 -857 Descending FlightAware ADS-B
Wed 10:19:08 AM 25.4970 -79.8880 306° West 297 342 9,900 -758 Descending FlightAware ADS-B
Wed 10:19:38 AM 25.5230 -79.9260 307° West 288 331 9,900  Level FlightAware ADS-B
Wed 10:20:08 AM 25.5460 -79.9610 306° West 288 331 9,900  Level FlightAware ADS-B
Wed 10:20:43 AM 25.5740 -80.0040 306° West 286 329 9,900 -429 Level FlightAware ADS-B
Wed 10:21:18 AM 25.6010 -80.0450 306° West 286 329 9,400 -1,040 Descending FlightAware ADS-B
Wed 10:21:58 AM 25.6340 -80.0950 306° West 286 329 8,600 -1,200 Descending FlightAware ADS-B
Wed 10:22:33 AM 25.6600 -80.1350 306° West 283 326 7,900 -560 Descending FlightAware ADS-B
Wed 10:23:13 AM 25.6780 -80.1920 289° West 289 333 7,900 -80 Level FlightAware ADS-B
Wed 10:23:48 AM 25.6870 -80.2420 281° West 276 318 7,800 -711 Descending FlightAware ADS-B
Wed 10:24:29 AM 25.6900 -80.2980 273° West 262 302 7,000 -1,114 Descending FlightAware ADS-B
Wed 10:24:58 AM 25.6910 -80.3360 272° West 244 281 6,500 -1,831 Descending FlightAware ADS-B
Wed 10:25:28 AM 25.6930 -80.3760 273° West 256 295 5,200 -2,123 Descending FlightAware ADS-B
Wed 10:26:03 AM 25.6960 -80.4200 274° West 255 293 4,200 -1,114 Descending FlightAware ADS-B
Wed 10:26:38 AM 25.6990 -80.4650 274° West 242 278 3,900 -675 Descending FlightAware ADS-B
Wed 10:27:23 AM 25.7320 -80.4970 319° Northwest 218 251 3,300 -600 Descending FlightAware ADS-B
Wed 10:27:48 AM 25.7560 -80.5020 349° North 196 226 3,200 -560 Descending FlightAware ADS-B
Wed 10:28:38 AM 25.7790 -80.4720 50° Northeast 165 190 2,600 -825 Descending FlightAware ADS-B
Wed 10:29:08 AM 25.7810 -80.4470 85° East 166 191 2,100 -835 Descending FlightAware ADS-B
Wed 10:29:57 AM 25.7820 -80.4050 88° East 156 180 1,500 -741 Descending FlightAware ADS-B
Wed 10:30:29 AM 25.7830 -80.3820 87° East 130 150 1,100 -675 Descending FlightAware ADS-B
Wed 10:31:17 AM 25.7850 -80.3510 86° East 122 140 600 -674 Descending FlightAware ADS-B
Wed 10:31:58 AM 25.7860 -80.3250 88° East 120 138 100 -732 Descending FlightAware ADS-B
Wed 10:32:20 AM 25.7860 -80.3130 90° East 122 140 -273 Descending FlightAware ADS-B
Wed 10:32:47 AM 25.7870 -80.2980 86° East 122 140  Level FlightAware ADS-B
Wed 10:39:00 AM 25.7833 -80.2833 90° East  Level FlightAware Approximate
Wed 10:40:00 AM 25.7954 -80.2901 90° East  Level Estimated
Wed 10:41:00 AM 25.7954 -80.2901 90° East  Level Estimated

Login

Don't have an account? Register now (free) for customized features, flight alerts, and more!